Terminal Aerodrome Forecast
Issued by NWS Grand Forks, ND

Home | Current Version | Previous Version | Text Only | Print | Product List | Glossary Off
Versions: 1 2 3 4 5 6 7 8 9 10 11 12 13 14 15

000
FTUS43 KFGF 160500
TAFGFK
TAF
KGFK 160520Z 1606/1706 20010KT P6SM SCT080
      TEMPO 1606/1608 BKN080
     FM161200 28010KT P6SM BKN070
     FM161500 34013KT P6SM BKN080
     FM162100 34013KT P6SM SCT080=

USA.gov is the U.S. government's official web portal to all federal, state and local government web resources and services.